sensor_id;sensor_type;location;lat;lon;timestamp;P1;durP1;ratioP1;P2;durP2;ratioP2
53688;SDS011;39583;54.682;30.662;2023-08-06T07:42:49;9.55;;;6.15;;
53688;SDS011;39583;54.682;30.662;2023-08-06T07:45:17;11.30;;;6.70;;
53688;SDS011;39583;54.682;30.662;2023-08-06T07:47:44;7.82;;;6.18;;
53688;SDS011;39583;54.682;30.662;2023-08-06T07:50:12;10.30;;;6.82;;
53688;SDS011;39583;54.682;30.662;2023-08-06T07:52:40;9.50;;;6.13;;
53688;SDS011;39583;54.682;30.662;2023-08-06T07:55:07;7.07;;;5.35;;
53688;SDS011;39583;54.682;30.662;2023-08-06T07:57:35;7.75;;;6.22;;
53688;SDS011;39583;54.682;30.662;2023-08-06T08:00:04;8.50;;;6.35;;
53688;SDS011;39583;54.682;30.662;2023-08-06T08:02:38;7.68;;;6.35;;
53688;SDS011;39583;54.682;30.662;2023-08-06T08:05:06;7.82;;;6.85;;
53688;SDS011;39583;54.682;30.662;2023-08-06T08:07:35;10.02;;;5.95;;
53688;SDS011;39583;54.682;30.662;2023-08-06T08:10:02;7.75;;;5.85;;
53688;SDS011;39583;54.682;30.662;2023-08-06T08:12:32;9.05;;;6.15;;
53688;SDS011;39583;54.682;30.662;2023-08-06T08:14:59;9.30;;;6.50;;
53688;SDS011;39583;54.682;30.662;2023-08-06T08:17:28;7.68;;;6.45;;
53688;SDS011;39583;54.682;30.662;2023-08-06T08:19:57;13.38;;;6.63;;
53688;SDS011;39583;54.682;30.662;2023-08-06T08:22:25;8.18;;;6.35;;
53688;SDS011;39583;54.682;30.662;2023-08-06T08:24:53;7.93;;;6.18;;
53688;SDS011;39583;54.682;30.662;2023-08-06T08:27:23;16.40;;;6.43;;
53688;SDS011;39583;54.682;30.662;2023-08-06T08:29:50;8.55;;;6.57;;
53688;SDS011;39583;54.682;30.662;2023-08-06T08:32:17;7.40;;;5.90;;
53688;SDS011;39583;54.682;30.662;2023-08-06T08:34:45;7.15;;;5.97;;
53688;SDS011;39583;54.682;30.662;2023-08-06T08:37:13;6.60;;;6.00;;
53688;SDS011;39583;54.682;30.662;2023-08-06T08:39:40;7.00;;;5.88;;
53688;SDS011;39583;54.682;30.662;2023-08-06T08:42:08;7.85;;;5.72;;
53688;SDS011;39583;54.682;30.662;2023-08-06T08:44:37;6.28;;;5.68;;
53688;SDS011;39583;54.682;30.662;2023-08-06T08:47:06;8.02;;;6.22;;
53688;SDS011;39583;54.682;30.662;2023-08-06T08:49:36;14.05;;;6.18;;
53688;SDS011;39583;54.682;30.662;2023-08-06T08:52:04;7.47;;;5.80;;
53688;SDS011;39583;54.682;30.662;2023-08-06T08:54:38;6.43;;;5.65;;
53688;SDS011;39583;54.682;30.662;2023-08-06T08:57:06;9.80;;;5.80;;
53688;SDS011;39583;54.682;30.662;2023-08-06T08:59:33;6.70;;;5.07;;
53688;SDS011;39583;54.682;30.662;2023-08-06T09:02:01;8.65;;;5.68;;
53688;SDS011;39583;54.682;30.662;2023-08-06T09:04:29;6.30;;;5.70;;
53688;SDS011;39583;54.682;30.662;2023-08-06T09:07:02;8.15;;;5.65;;
53688;SDS011;39583;54.682;30.662;2023-08-06T09:09:31;7.63;;;6.18;;
53688;SDS011;39583;54.682;30.662;2023-08-06T09:12:01;6.57;;;5.97;;
53688;SDS011;39583;54.682;30.662;2023-08-06T09:17:00;8.30;;;5.65;;
53688;SDS011;39583;54.682;30.662;2023-08-06T09:19:28;6.38;;;5.78;;
53688;SDS011;39583;54.682;30.662;2023-08-06T09:21:56;9.05;;;5.47;;
53688;SDS011;39583;54.682;30.662;2023-08-06T09:24:24;8.70;;;5.93;;
53688;SDS011;39583;54.682;30.662;2023-08-06T09:26:53;9.93;;;5.50;;
53688;SDS011;39583;54.682;30.662;2023-08-06T09:29:21;7.30;;;5.60;;
53688;SDS011;39583;54.682;30.662;2023-08-06T09:31:49;6.53;;;5.95;;
53688;SDS011;39583;54.682;30.662;2023-08-06T09:34:22;8.73;;;5.88;;
53688;SDS011;39583;54.682;30.662;2023-08-06T09:36:51;6.43;;;5.78;;
53688;SDS011;39583;54.682;30.662;2023-08-06T09:39:21;6.20;;;5.57;;
53688;SDS011;39583;54.682;30.662;2023-08-06T09:41:57;7.10;;;5.18;;
53688;SDS011;39583;54.682;30.662;2023-08-06T09:44:26;6.40;;;5.38;;
53688;SDS011;39583;54.682;30.662;2023-08-06T09:46:56;6.38;;;5.47;;
53688;SDS011;39583;54.682;30.662;2023-08-06T09:49:42;7.15;;;5.78;;
53688;SDS011;39583;54.682;30.662;2023-08-06T09:52:13;6.82;;;5.57;;
53688;SDS011;39583;54.682;30.662;2023-08-06T09:54:42;7.82;;;5.28;;
53688;SDS011;39583;54.682;30.662;2023-08-06T09:57:11;7.80;;;5.22;;
53688;SDS011;39583;54.682;30.662;2023-08-06T09:59:39;7.10;;;5.10;;
53688;SDS011;39583;54.682;30.662;2023-08-06T10:02:12;6.50;;;4.65;;
53688;SDS011;39583;54.682;30.662;2023-08-06T10:04:42;6.88;;;5.50;;
53688;SDS011;39583;54.682;30.662;2023-08-06T10:07:21;10.07;;;5.80;;
53688;SDS011;39583;54.682;30.662;2023-08-06T10:09:51;7.97;;;5.10;;
53688;SDS011;39583;54.682;30.662;2023-08-06T10:12:18;6.18;;;5.57;;
53688;SDS011;39583;54.682;30.662;2023-08-06T10:14:48;7.80;;;5.35;;
53688;SDS011;39583;54.682;30.662;2023-08-06T10:17:20;10.60;;;6.53;;
53688;SDS011;39583;54.682;30.662;2023-08-06T10:19:55;6.65;;;5.72;;
53688;SDS011;39583;54.682;30.662;2023-08-06T10:22:23;9.18;;;5.43;;
53688;SDS011;39583;54.682;30.662;2023-08-06T10:32:55;8.40;;;5.28;;
53688;SDS011;39583;54.682;30.662;2023-08-06T10:40:43;12.65;;;6.35;;
53688;SDS011;39583;54.682;30.662;2023-08-06T10:43:31;8.60;;;6.60;;
53688;SDS011;39583;54.682;30.662;2023-08-06T10:46:02;9.68;;;5.07;;
53688;SDS011;39583;54.682;30.662;2023-08-06T10:51:09;8.13;;;5.63;;
53688;SDS011;39583;54.682;30.662;2023-08-06T10:53:38;7.40;;;5.40;;
53688;SDS011;39583;54.682;30.662;2023-08-06T10:56:16;6.35;;;5.53;;
53688;SDS011;39583;54.682;30.662;2023-08-06T10:58:51;9.60;;;5.25;;
53688;SDS011;39583;54.682;30.662;2023-08-06T11:01:21;6.90;;;5.75;;
53688;SDS011;39583;54.682;30.662;2023-08-06T11:03:49;5.60;;;5.10;;
53688;SDS011;39583;54.682;30.662;2023-08-06T11:06:18;7.45;;;5.22;;
53688;SDS011;39583;54.682;30.662;2023-08-06T11:08:50;8.32;;;5.50;;
53688;SDS011;39583;54.682;30.662;2023-08-06T11:11:20;5.82;;;5.20;;
53688;SDS011;39583;54.682;30.662;2023-08-06T11:13:49;8.88;;;5.00;;
53688;SDS011;39583;54.682;30.662;2023-08-06T11:16:18;8.35;;;5.25;;
53688;SDS011;39583;54.682;30.662;2023-08-06T11:18:48;6.45;;;4.90;;
53688;SDS011;39583;54.682;30.662;2023-08-06T11:21:21;11.77;;;5.78;;
53688;SDS011;39583;54.682;30.662;2023-08-06T11:23:51;8.88;;;4.97;;
53688;SDS011;39583;54.682;30.662;2023-08-06T11:26:20;5.95;;;4.50;;
53688;SDS011;39583;54.682;30.662;2023-08-06T11:28:48;7.20;;;4.88;;
53688;SDS011;39583;54.682;30.662;2023-08-06T11:31:23;8.48;;;4.75;;
53688;SDS011;39583;54.682;30.662;2023-08-06T11:33:51;7.35;;;4.75;;
53688;SDS011;39583;54.682;30.662;2023-08-06T11:36:31;8.90;;;5.30;;
53688;SDS011;39583;54.682;30.662;2023-08-06T11:38:59;6.13;;;5.25;;
53688;SDS011;39583;54.682;30.662;2023-08-06T11:41:28;6.55;;;5.20;;
53688;SDS011;39583;54.682;30.662;2023-08-06T11:43:56;6.43;;;4.68;;
53688;SDS011;39583;54.682;30.662;2023-08-06T11:46:24;7.05;;;5.30;;
53688;SDS011;39583;54.682;30.662;2023-08-06T11:48:52;8.27;;;4.88;;
53688;SDS011;39583;54.682;30.662;2023-08-06T11:51:24;6.53;;;5.43;;
53688;SDS011;39583;54.682;30.662;2023-08-06T11:53:57;6.03;;;5.30;;
53688;SDS011;39583;54.682;30.662;2023-08-06T11:56:25;9.03;;;5.43;;
53688;SDS011;39583;54.682;30.662;2023-08-06T11:58:54;5.47;;;4.95;;
53688;SDS011;39583;54.682;30.662;2023-08-06T12:01:22;9.32;;;4.90;;
53688;SDS011;39583;54.682;30.662;2023-08-06T12:03:50;6.03;;;5.32;;
53688;SDS011;39583;54.682;30.662;2023-08-06T12:06:17;9.57;;;5.25;;
53688;SDS011;39583;54.682;30.662;2023-08-06T12:08:46;6.63;;;5.35;;
53688;SDS011;39583;54.682;30.662;2023-08-06T12:11:15;5.80;;;5.20;;
53688;SDS011;39583;54.682;30.662;2023-08-06T12:13:43;7.25;;;5.35;;
53688;SDS011;39583;54.682;30.662;2023-08-06T12:16:11;5.97;;;4.78;;
53688;SDS011;39583;54.682;30.662;2023-08-06T12:18:42;7.38;;;5.25;;
53688;SDS011;39583;54.682;30.662;2023-08-06T12:21:09;5.72;;;5.22;;
53688;SDS011;39583;54.682;30.662;2023-08-06T12:23:40;10.38;;;5.32;;
53688;SDS011;39583;54.682;30.662;2023-08-06T12:26:07;5.22;;;4.72;;
53688;SDS011;39583;54.682;30.662;2023-08-06T12:28:34;8.25;;;5.07;;
53688;SDS011;39583;54.682;30.662;2023-08-06T12:31:02;4.65;;;4.25;;
53688;SDS011;39583;54.682;30.662;2023-08-06T12:33:29;6.50;;;4.97;;
53688;SDS011;39583;54.682;30.662;2023-08-06T12:35:56;7.88;;;5.18;;
53688;SDS011;39583;54.682;30.662;2023-08-06T12:38:25;6.45;;;5.22;;
53688;SDS011;39583;54.682;30.662;2023-08-06T12:40:52;7.63;;;4.65;;
53688;SDS011;39583;54.682;30.662;2023-08-06T12:43:20;6.07;;;5.07;;
53688;SDS011;39583;54.682;30.662;2023-08-06T12:45:47;9.48;;;4.78;;
53688;SDS011;39583;54.682;30.662;2023-08-06T12:48:15;7.47;;;5.30;;
53688;SDS011;39583;54.682;30.662;2023-08-06T12:50:43;7.80;;;5.50;;
53688;SDS011;39583;54.682;30.662;2023-08-06T12:53:10;7.30;;;5.25;;
53688;SDS011;39583;54.682;30.662;2023-08-06T12:55:38;6.07;;;5.20;;
53688;SDS011;39583;54.682;30.662;2023-08-06T12:58:07;5.25;;;4.75;;
53688;SDS011;39583;54.682;30.662;2023-08-06T13:00:35;7.43;;;4.70;;
53688;SDS011;39583;54.682;30.662;2023-08-06T13:03:03;6.97;;;4.90;;
53688;SDS011;39583;54.682;30.662;2023-08-06T13:05:30;8.40;;;4.68;;
53688;SDS011;39583;54.682;30.662;2023-08-06T13:07:58;8.68;;;4.70;;
53688;SDS011;39583;54.682;30.662;2023-08-06T13:10:26;6.10;;;5.20;;
53688;SDS011;39583;54.682;30.662;2023-08-06T13:12:55;8.98;;;5.03;;
53688;SDS011;39583;54.682;30.662;2023-08-06T13:15:24;9.57;;;5.03;;
53688;SDS011;39583;54.682;30.662;2023-08-06T13:17:51;9.48;;;4.90;;
53688;SDS011;39583;54.682;30.662;2023-08-06T13:20:19;11.40;;;5.35;;
53688;SDS011;39583;54.682;30.662;2023-08-06T13:22:47;8.60;;;5.07;;
53688;SDS011;39583;54.682;30.662;2023-08-06T13:25:17;5.47;;;4.80;;
53688;SDS011;39583;54.682;30.662;2023-08-06T13:27:45;6.18;;;4.88;;
53688;SDS011;39583;54.682;30.662;2023-08-06T13:30:13;6.65;;;5.07;;
53688;SDS011;39583;54.682;30.662;2023-08-06T13:32:40;9.10;;;5.07;;
53688;SDS011;39583;54.682;30.662;2023-08-06T13:35:08;8.05;;;4.60;;
53688;SDS011;39583;54.682;30.662;2023-08-06T13:37:35;7.00;;;4.97;;
53688;SDS011;39583;54.682;30.662;2023-08-06T13:40:03;6.07;;;4.68;;
53688;SDS011;39583;54.682;30.662;2023-08-06T13:42:31;12.38;;;5.20;;
53688;SDS011;39583;54.682;30.662;2023-08-06T13:44:59;8.43;;;4.80;;
53688;SDS011;39583;54.682;30.662;2023-08-06T13:47:31;8.38;;;4.50;;
53688;SDS011;39583;54.682;30.662;2023-08-06T13:49:59;7.68;;;4.90;;
53688;SDS011;39583;54.682;30.662;2023-08-06T13:52:26;6.60;;;5.00;;
53688;SDS011;39583;54.682;30.662;2023-08-06T13:54:54;8.05;;;5.03;;
53688;SDS011;39583;54.682;30.662;2023-08-06T13:57:21;6.57;;;4.75;;
53688;SDS011;39583;54.682;30.662;2023-08-06T13:59:49;6.10;;;5.20;;
53688;SDS011;39583;54.682;30.662;2023-08-06T14:02:16;6.60;;;4.93;;
53688;SDS011;39583;54.682;30.662;2023-08-06T14:04:44;6.80;;;4.47;;
53688;SDS011;39583;54.682;30.662;2023-08-06T14:07:12;5.30;;;4.80;;
53688;SDS011;39583;54.682;30.662;2023-08-06T14:09:41;5.97;;;4.30;;
53688;SDS011;39583;54.682;30.662;2023-08-06T14:12:09;6.75;;;5.05;;
53688;SDS011;39583;54.682;30.662;2023-08-06T14:14:37;9.82;;;4.93;;
53688;SDS011;39583;54.682;30.662;2023-08-06T14:17:06;4.95;;;4.47;;
53688;SDS011;39583;54.682;30.662;2023-08-06T14:19:35;5.28;;;4.78;;
53688;SDS011;39583;54.682;30.662;2023-08-06T14:22:02;13.82;;;5.15;;
53688;SDS011;39583;54.682;30.662;2023-08-06T14:24:30;7.78;;;4.32;;
53688;SDS011;39583;54.682;30.662;2023-08-06T14:26:58;5.65;;;4.78;;
53688;SDS011;39583;54.682;30.662;2023-08-06T14:29:25;7.15;;;4.53;;
53688;SDS011;39583;54.682;30.662;2023-08-06T14:31:53;6.00;;;4.70;;
53688;SDS011;39583;54.682;30.662;2023-08-06T14:34:21;4.95;;;4.40;;
53688;SDS011;39583;54.682;30.662;2023-08-06T14:36:48;6.63;;;4.63;;
53688;SDS011;39583;54.682;30.662;2023-08-06T14:39:16;5.03;;;4.53;;
53688;SDS011;39583;54.682;30.662;2023-08-06T14:41:44;7.30;;;5.55;;
53688;SDS011;39583;54.682;30.662;2023-08-06T14:44:11;5.78;;;4.97;;
53688;SDS011;39583;54.682;30.662;2023-08-06T14:46:39;9.48;;;4.78;;
53688;SDS011;39583;54.682;30.662;2023-08-06T14:49:07;5.90;;;4.40;;
53688;SDS011;39583;54.682;30.662;2023-08-06T14:51:34;9.35;;;4.60;;
53688;SDS011;39583;54.682;30.662;2023-08-06T14:54:02;5.00;;;4.50;;
53688;SDS011;39583;54.682;30.662;2023-08-06T14:56:29;7.38;;;5.00;;
53688;SDS011;39583;54.682;30.662;2023-08-06T14:58:57;5.18;;;4.75;;
53688;SDS011;39583;54.682;30.662;2023-08-06T15:01:24;5.80;;;4.70;;
53688;SDS011;39583;54.682;30.662;2023-08-06T15:03:52;10.43;;;5.50;;
53688;SDS011;39583;54.682;30.662;2023-08-06T15:06:19;10.90;;;5.03;;
53688;SDS011;39583;54.682;30.662;2023-08-06T15:08:46;8.00;;;4.90;;
53688;SDS011;39583;54.682;30.662;2023-08-06T15:11:15;6.57;;;5.35;;
53688;SDS011;39583;54.682;30.662;2023-08-06T15:13:42;12.73;;;6.10;;
53688;SDS011;39583;54.682;30.662;2023-08-06T15:16:09;9.75;;;5.53;;
53688;SDS011;39583;54.682;30.662;2023-08-06T15:18:37;9.32;;;5.55;;
53688;SDS011;39583;54.682;30.662;2023-08-06T15:21:04;9.88;;;6.68;;
53688;SDS011;39583;54.682;30.662;2023-08-06T15:23:31;10.73;;;5.25;;
53688;SDS011;39583;54.682;30.662;2023-08-06T15:25:59;7.53;;;5.07;;
53688;SDS011;39583;54.682;30.662;2023-08-06T15:28:27;12.38;;;6.07;;
53688;SDS011;39583;54.682;30.662;2023-08-06T15:30:54;7.22;;;5.10;;
53688;SDS011;39583;54.682;30.662;2023-08-06T15:33:22;8.95;;;5.15;;
53688;SDS011;39583;54.682;30.662;2023-08-06T15:35:49;8.85;;;5.10;;
53688;SDS011;39583;54.682;30.662;2023-08-06T15:38:18;11.50;;;5.50;;
53688;SDS011;39583;54.682;30.662;2023-08-06T15:40:45;8.10;;;5.30;;
53688;SDS011;39583;54.682;30.662;2023-08-06T15:43:14;6.40;;;5.00;;
53688;SDS011;39583;54.682;30.662;2023-08-06T15:45:41;6.85;;;4.68;;
53688;SDS011;39583;54.682;30.662;2023-08-06T15:48:09;6.85;;;4.63;;
53688;SDS011;39583;54.682;30.662;2023-08-06T15:50:39;6.25;;;4.82;;
53688;SDS011;39583;54.682;30.662;2023-08-06T15:53:10;9.85;;;4.93;;
53688;SDS011;39583;54.682;30.662;2023-08-06T15:55:39;5.55;;;4.65;;
53688;SDS011;39583;54.682;30.662;2023-08-06T15:58:06;8.25;;;5.00;;
53688;SDS011;39583;54.682;30.662;2023-08-06T16:00:34;5.68;;;4.55;;
53688;SDS011;39583;54.682;30.662;2023-08-06T16:03:02;5.78;;;4.25;;
53688;SDS011;39583;54.682;30.662;2023-08-06T16:05:30;5.35;;;4.60;;
53688;SDS011;39583;54.682;30.662;2023-08-06T16:07:59;5.88;;;4.85;;
53688;SDS011;39583;54.682;30.662;2023-08-06T16:10:26;7.50;;;4.78;;
53688;SDS011;39583;54.682;30.662;2023-08-06T16:12:54;7.30;;;5.25;;
53688;SDS011;39583;54.682;30.662;2023-08-06T16:15:21;5.80;;;5.18;;
53688;SDS011;39583;54.682;30.662;2023-08-06T16:17:54;5.72;;;4.72;;
53688;SDS011;39583;54.682;30.662;2023-08-06T16:20:26;6.22;;;4.88;;
53688;SDS011;39583;54.682;30.662;2023-08-06T16:22:55;10.00;;;4.68;;
53688;SDS011;39583;54.682;30.662;2023-08-06T16:25:28;13.60;;;5.07;;
53688;SDS011;39583;54.682;30.662;2023-08-06T16:27:58;7.28;;;4.57;;
53688;SDS011;39583;54.682;30.662;2023-08-06T16:30:27;8.15;;;4.30;;
53688;SDS011;39583;54.682;30.662;2023-08-06T16:33:04;7.43;;;4.93;;
53688;SDS011;39583;54.682;30.662;2023-08-06T16:35:36;6.68;;;4.53;;
53688;SDS011;39583;54.682;30.662;2023-08-06T16:38:21;9.57;;;4.70;;
53688;SDS011;39583;54.682;30.662;2023-08-06T16:43:31;8.77;;;5.22;;
53688;SDS011;39583;54.682;30.662;2023-08-06T16:46:05;7.32;;;4.93;;
53688;SDS011;39583;54.682;30.662;2023-08-06T16:48:40;7.38;;;4.95;;
53688;SDS011;39583;54.682;30.662;2023-08-06T16:51:20;7.00;;;5.78;;
53688;SDS011;39583;54.682;30.662;2023-08-06T16:53:51;7.85;;;4.93;;
53688;SDS011;39583;54.682;30.662;2023-08-06T16:56:28;6.25;;;5.30;;
53688;SDS011;39583;54.682;30.662;2023-08-06T17:01:38;5.30;;;4.80;;
53688;SDS011;39583;54.682;30.662;2023-08-06T17:04:11;8.40;;;5.40;;
53688;SDS011;39583;54.682;30.662;2023-08-06T17:06:44;7.13;;;5.45;;
53688;SDS011;39583;54.682;30.662;2023-08-06T17:09:29;11.68;;;5.82;;
53688;SDS011;39583;54.682;30.662;2023-08-06T17:11:59;7.90;;;5.43;;
53688;SDS011;39583;54.682;30.662;2023-08-06T17:14:43;11.52;;;5.85;;
53688;SDS011;39583;54.682;30.662;2023-08-06T17:17:16;9.13;;;6.07;;
53688;SDS011;39583;54.682;30.662;2023-08-06T17:20:02;10.23;;;6.05;;
53688;SDS011;39583;54.682;30.662;2023-08-06T17:23:04;9.07;;;5.88;;
53688;SDS011;39583;54.682;30.662;2023-08-06T17:25:47;12.25;;;6.13;;
53688;SDS011;39583;54.682;30.662;2023-08-06T17:28:17;9.15;;;6.35;;
53688;SDS011;39583;54.682;30.662;2023-08-06T17:30:44;6.70;;;6.03;;
53688;SDS011;39583;54.682;30.662;2023-08-06T17:33:12;10.70;;;5.90;;
53688;SDS011;39583;54.682;30.662;2023-08-06T17:35:40;7.28;;;6.57;;
53688;SDS011;39583;54.682;30.662;2023-08-06T17:38:12;9.52;;;7.35;;
53688;SDS011;39583;54.682;30.662;2023-08-06T17:40:54;6.47;;;5.80;;
53688;SDS011;39583;54.682;30.662;2023-08-06T17:43:22;12.88;;;6.63;;
53688;SDS011;39583;54.682;30.662;2023-08-06T17:45:50;12.45;;;6.63;;
53688;SDS011;39583;54.682;30.662;2023-08-06T17:48:18;9.35;;;6.30;;
53688;SDS011;39583;54.682;30.662;2023-08-06T17:50:46;13.38;;;6.25;;
53688;SDS011;39583;54.682;30.662;2023-08-06T17:53:13;8.23;;;5.95;;
53688;SDS011;39583;54.682;30.662;2023-08-06T17:55:41;9.45;;;6.32;;
53688;SDS011;39583;54.682;30.662;2023-08-06T17:58:12;9.68;;;6.47;;
53688;SDS011;39583;54.682;30.662;2023-08-06T18:00:39;6.90;;;5.93;;
53688;SDS011;39583;54.682;30.662;2023-08-06T18:03:07;9.32;;;6.97;;
53688;SDS011;39583;54.682;30.662;2023-08-06T18:05:35;7.03;;;6.32;;
53688;SDS011;39583;54.682;30.662;2023-08-06T18:08:02;8.30;;;6.72;;
53688;SDS011;39583;54.682;30.662;2023-08-06T18:10:30;7.80;;;5.93;;
53688;SDS011;39583;54.682;30.662;2023-08-06T18:12:57;12.73;;;6.35;;
53688;SDS011;39583;54.682;30.662;2023-08-06T18:15:25;8.68;;;6.63;;
53688;SDS011;39583;54.682;30.662;2023-08-06T18:17:55;8.23;;;6.40;;
53688;SDS011;39583;54.682;30.662;2023-08-06T18:20:23;12.25;;;6.85;;
53688;SDS011;39583;54.682;30.662;2023-08-06T18:22:50;6.88;;;6.18;;
53688;SDS011;39583;54.682;30.662;2023-08-06T18:25:18;8.52;;;6.30;;
53688;SDS011;39583;54.682;30.662;2023-08-06T18:27:47;9.05;;;6.57;;
53688;SDS011;39583;54.682;30.662;2023-08-06T18:30:14;8.68;;;6.47;;
53688;SDS011;39583;54.682;30.662;2023-08-06T18:32:42;11.85;;;6.22;;
53688;SDS011;39583;54.682;30.662;2023-08-06T18:35:10;8.80;;;6.95;;
53688;SDS011;39583;54.682;30.662;2023-08-06T18:37:38;10.82;;;6.93;;
53688;SDS011;39583;54.682;30.662;2023-08-06T18:40:07;9.57;;;6.75;;
53688;SDS011;39583;54.682;30.662;2023-08-06T18:42:36;9.32;;;6.50;;
53688;SDS011;39583;54.682;30.662;2023-08-06T18:45:06;11.45;;;6.53;;
53688;SDS011;39583;54.682;30.662;2023-08-06T18:47:35;11.73;;;6.32;;
53688;SDS011;39583;54.682;30.662;2023-08-06T18:50:02;9.30;;;6.35;;
53688;SDS011;39583;54.682;30.662;2023-08-06T18:52:30;9.07;;;6.25;;
53688;SDS011;39583;54.682;30.662;2023-08-06T18:54:57;10.27;;;6.45;;
53688;SDS011;39583;54.682;30.662;2023-08-06T18:57:24;9.00;;;6.53;;
